Atlantic Island — C4VM2 — position and weather

sailwx.info

Track history (hours):
 
Tides and Currents Weather Stations Pressure Air Temp Water Temp Dewpoint Dewpoint Depression Visibility Wind Speed Wind Dir Waves Ship Positions

Atlantic Island

Last reported at 2014-Sep-20 18:09 UTC. Time now 2014-Sep-23 12:16 UTC.
Position N 35°43' W 000°38'.

Length 95 m; draft 5.8 m.

Type: Cargo ship. MMSI: 210754000.

Date/timePositionNaut miles runAvg speedWind from/ knotsBaromVisibWave heightAir tempDewpointWater temp
2014-Sep-20 18:09N 35°43' W 000°38'0 0.0
2014-Sep-20 16:33N 35°43' W 000°38'0 0.0
2014-Sep-20 15:21N 35°43' W 000°38'5 0.3
2014-Sep-20 01:25N 35°46' W 000°35'0 0.0
2014-Sep-19 14:15N 35°46' W 000°35'227 8.7
2014-Sep-18 12:04N 35°58' W 005°15'611.7
2014-Sep-18 11:33N 35°57' W 005°22'214 7.9
2014-Sep-17 08:21N 37°30' W 009°23'7 8.9
2014-Sep-17 07:33N 37°37' W 009°20'9 8.7
2014-Sep-17 06:30N 37°45' W 009°16'8 8.3
2014-Sep-17 05:33N 37°53' W 009°13'12 8.4
2014-Sep-17 04:06N 38°04' W 009°08'5 7.8
2014-Sep-17 03:30N 38°09' W 009°06'8 8.1
2014-Sep-17 02:33N 38°16' W 009°03'8 7.7
2014-Sep-17 01:33N 38°23' W 009°00'8 8.3
2014-Sep-17 00:33N 38°30' W 008°55'2 2.0
2014-Sep-16 23:31N 38°31' W 008°52'0 0.0
2014-Sep-16 22:25N 38°31' W 008°52'0 0.0
2014-Sep-16 21:31N 38°31' W 008°52'0 0.0
2014-Sep-16 20:28N 38°31' W 008°52'0 0.0
2014-Sep-16 19:31N 38°31' W 008°52'0 0.0
2014-Sep-16 18:31N 38°31' W 008°52'0 0.0
2014-Sep-16 17:31N 38°31' W 008°52'0 0.0
2014-Sep-16 16:30N 38°31' W 008°52'0 0.0
2014-Sep-16 15:33N 38°31' W 008°52'0 0.0
2014-Sep-16 14:27N 38°31' W 008°52'0 0.0
2014-Sep-16 13:33N 38°31' W 008°52'0 0.0
2014-Sep-16 12:33N 38°31' W 008°52'0 0.0
2014-Sep-16 11:33N 38°31' W 008°52'0 0.0
2014-Sep-16 10:33N 38°31' W 008°52'0 0.0
2014-Sep-16 09:33N 38°31' W 008°52'0 0.0
2014-Sep-16 08:33N 38°31' W 008°52'0 0.0
2014-Sep-16 07:33N 38°31' W 008°52'0 0.0
2014-Sep-16 06:30N 38°31' W 008°52'0 0.0
2014-Sep-16 05:27N 38°31' W 008°52'0 0.0
2014-Sep-16 04:30N 38°31' W 008°52'0 0.0
2014-Sep-16 03:33N 38°31' W 008°52'0 0.0
2014-Sep-16 02:33N 38°31' W 008°52'0 0.0
2014-Sep-16 01:27N 38°31' W 008°52'0 0.0
2014-Sep-16 00:30N 38°31' W 008°52'0 0.0
2014-Sep-15 20:33N 38°31' W 008°52'0 0.0
2014-Sep-15 19:24N 38°31' W 008°52'0 0.0
2014-Sep-15 18:24N 38°31' W 008°52'0 0.0
2014-Sep-15 17:27N 38°31' W 008°52'0 0.0
2014-Sep-15 16:33N 38°31' W 008°52'0 0.0
2014-Sep-15 15:33N 38°31' W 008°52'0 0.0
2014-Sep-15 14:33N 38°31' W 008°52'0 0.0
2014-Sep-15 13:30N 38°31' W 008°52'0 0.0
2014-Sep-15 12:30N 38°31' W 008°52'0 0.0
2014-Sep-15 11:24N 38°31' W 008°52'0 0.0
2014-Sep-15 07:33N 38°31' W 008°52'0 0.0
2014-Sep-15 06:30N 38°31' W 008°52'0 0.0
2014-Sep-15 03:29N 38°31' W 008°52'0 0.0
2014-Sep-15 02:32N 38°31' W 008°52'0 0.0
2014-Sep-15 01:23N 38°31' W 008°52'0 0.0
2014-Sep-15 00:32N 38°31' W 008°52'0 0.0
2014-Sep-14 23:32N 38°31' W 008°52'0 0.0
2014-Sep-14 22:32N 38°31' W 008°52'0 0.0
2014-Sep-14 21:29N 38°31' W 008°52'0 0.0
2014-Sep-14 20:29N 38°31' W 008°52'0 0.0
2014-Sep-14 19:32N 38°31' W 008°52'0 0.0
2014-Sep-14 18:32N 38°31' W 008°52'0 0.0
2014-Sep-14 17:32N 38°31' W 008°52'0 0.0
2014-Sep-14 16:29N 38°31' W 008°52'0 0.0
2014-Sep-14 15:23N 38°31' W 008°52'0 0.0
2014-Sep-14 14:23N 38°31' W 008°52'0 0.0
2014-Sep-14 13:29N 38°31' W 008°52'0 0.0
2014-Sep-14 12:29N 38°31' W 008°52'0 0.0
2014-Sep-14 11:29N 38°31' W 008°52'0 0.0
2014-Sep-14 10:26N 38°31' W 008°52'0 0.0
2014-Sep-14 08:23N 38°31' W 008°52'0 0.0
2014-Sep-14 07:23N 38°31' W 008°52'0 0.0
2014-Sep-14 06:32N 38°31' W 008°52'0 0.0
2014-Sep-14 05:29N 38°31' W 008°52'0 0.0
2014-Sep-14 04:32N 38°31' W 008°52'0 0.0
2014-Sep-14 03:05N 38°31' W 008°52'0 0.0
2014-Sep-14 02:32N 38°31' W 008°52'0 0.0
2014-Sep-14 01:26N 38°31' W 008°52'4 1.0
2014-Sep-13 21:33N 38°29' W 008°57'9 9.1
2014-Sep-13 20:33N 38°20' W 009°01'1111.2
2014-Sep-13 19:33N 38°09' W 009°03'1110.5
2014-Sep-13 18:33N 37°59' W 009°06'1110.6
2014-Sep-13 17:33N 37°48' W 009°09'1110.9
2014-Sep-13 16:33N 37°37' W 009°10'1110.7
2014-Sep-13 15:33N 37°27' W 009°13'1010.4
2014-Sep-13 14:32N 37°17' W 009°16'1511.0
2014-Sep-13 13:11N 37°03' W 009°20'16 9.6
2014-Sep-13 11:33N 36°48' W 009°13'19 9.5
2014-Sep-13 09:33N 36°42' W 008°51'10 9.5
2014-Sep-13 08:33N 36°42' W 008°39'9 9.3
2014-Sep-13 07:33N 36°43' W 008°27'10 9.7
2014-Sep-13 06:33N 36°43' W 008°15'20 9.8
2014-Sep-13 04:33N 36°44' W 007°51'  
Track history (hours):
 
Tides and Currents Weather Stations Pressure Air Temp Water Temp Dewpoint Dewpoint Depression Visibility Wind Speed Wind Dir Waves Ship Positions

Atlantic Island

Last reported at 2014-Sep-20 18:09 UTC. Time now 2014-Sep-23 12:16 UTC.
Position N 35°43' W 000°38'.

Length 95 m; draft 5.8 m.

Type: Cargo ship. MMSI: 210754000.

Date/timePositionNaut miles runAvg speedWind from/ knotsBaromVisibWave heightAir tempDewpointWater temp
2014-Sep-20 18:09N 35°43' W 000°38'0 0.0
2014-Sep-20 16:33N 35°43' W 000°38'0 0.0
2014-Sep-20 15:21N 35°43' W 000°38'5 0.3
2014-Sep-20 01:25N 35°46' W 000°35'0 0.0
2014-Sep-19 14:15N 35°46' W 000°35'227 8.7
2014-Sep-18 12:04N 35°58' W 005°15'611.7
2014-Sep-18 11:33N 35°57' W 005°22'214 7.9
2014-Sep-17 08:21N 37°30' W 009°23'7 8.9
2014-Sep-17 07:33N 37°37' W 009°20'9 8.7
2014-Sep-17 06:30N 37°45' W 009°16'8 8.3
2014-Sep-17 05:33N 37°53' W 009°13'12 8.4
2014-Sep-17 04:06N 38°04' W 009°08'5 7.8
2014-Sep-17 03:30N 38°09' W 009°06'8 8.1
2014-Sep-17 02:33N 38°16' W 009°03'8 7.7
2014-Sep-17 01:33N 38°23' W 009°00'8 8.3
2014-Sep-17 00:33N 38°30' W 008°55'2 2.0
2014-Sep-16 23:31N 38°31' W 008°52'0 0.0
2014-Sep-16 22:25N 38°31' W 008°52'0 0.0
2014-Sep-16 21:31N 38°31' W 008°52'0 0.0
2014-Sep-16 20:28N 38°31' W 008°52'0 0.0
2014-Sep-16 19:31N 38°31' W 008°52'0 0.0
2014-Sep-16 18:31N 38°31' W 008°52'0 0.0
2014-Sep-16 17:31N 38°31' W 008°52'0 0.0
2014-Sep-16 16:30N 38°31' W 008°52'0 0.0
2014-Sep-16 15:33N 38°31' W 008°52'0 0.0
2014-Sep-16 14:27N 38°31' W 008°52'0 0.0
2014-Sep-16 13:33N 38°31' W 008°52'0 0.0
2014-Sep-16 12:33N 38°31' W 008°52'0 0.0
2014-Sep-16 11:33N 38°31' W 008°52'0 0.0
2014-Sep-16 10:33N 38°31' W 008°52'0 0.0
2014-Sep-16 09:33N 38°31' W 008°52'0 0.0
2014-Sep-16 08:33N 38°31' W 008°52'0 0.0
2014-Sep-16 07:33N 38°31' W 008°52'0 0.0
2014-Sep-16 06:30N 38°31' W 008°52'0 0.0
2014-Sep-16 05:27N 38°31' W 008°52'0 0.0
2014-Sep-16 04:30N 38°31' W 008°52'0 0.0
2014-Sep-16 03:33N 38°31' W 008°52'0 0.0
2014-Sep-16 02:33N 38°31' W 008°52'0 0.0
2014-Sep-16 01:27N 38°31' W 008°52'0 0.0
2014-Sep-16 00:30N 38°31' W 008°52'0 0.0
2014-Sep-15 20:33N 38°31' W 008°52'0 0.0
2014-Sep-15 19:24N 38°31' W 008°52'0 0.0
2014-Sep-15 18:24N 38°31' W 008°52'0 0.0
2014-Sep-15 17:27N 38°31' W 008°52'0 0.0
2014-Sep-15 16:33N 38°31' W 008°52'0 0.0
2014-Sep-15 15:33N 38°31' W 008°52'0 0.0
2014-Sep-15 14:33N 38°31' W 008°52'0 0.0
2014-Sep-15 13:30N 38°31' W 008°52'0 0.0
2014-Sep-15 12:30N 38°31' W 008°52'0 0.0
2014-Sep-15 11:24N 38°31' W 008°52'0 0.0
2014-Sep-15 07:33N 38°31' W 008°52'0 0.0
2014-Sep-15 06:30N 38°31' W 008°52'0 0.0
2014-Sep-15 03:29N 38°31' W 008°52'0 0.0
2014-Sep-15 02:32N 38°31' W 008°52'0 0.0
2014-Sep-15 01:23N 38°31' W 008°52'0 0.0
2014-Sep-15 00:32N 38°31' W 008°52'0 0.0
2014-Sep-14 23:32N 38°31' W 008°52'0 0.0
2014-Sep-14 22:32N 38°31' W 008°52'0 0.0
2014-Sep-14 21:29N 38°31' W 008°52'0 0.0
2014-Sep-14 20:29N 38°31' W 008°52'0 0.0
2014-Sep-14 19:32N 38°31' W 008°52'0 0.0
2014-Sep-14 18:32N 38°31' W 008°52'0 0.0
2014-Sep-14 17:32N 38°31' W 008°52'0 0.0
2014-Sep-14 16:29N 38°31' W 008°52'0 0.0
2014-Sep-14 15:23N 38°31' W 008°52'0 0.0
2014-Sep-14 14:23N 38°31' W 008°52'0 0.0
2014-Sep-14 13:29N 38°31' W 008°52'0 0.0
2014-Sep-14 12:29N 38°31' W 008°52'0 0.0
2014-Sep-14 11:29N 38°31' W 008°52'0 0.0
2014-Sep-14 10:26N 38°31' W 008°52'0 0.0
2014-Sep-14 08:23N 38°31' W 008°52'0 0.0
2014-Sep-14 07:23N 38°31' W 008°52'0 0.0
2014-Sep-14 06:32N 38°31' W 008°52'0 0.0
2014-Sep-14 05:29N 38°31' W 008°52'0 0.0
2014-Sep-14 04:32N 38°31' W 008°52'0 0.0
2014-Sep-14 03:05N 38°31' W 008°52'0 0.0
2014-Sep-14 02:32N 38°31' W 008°52'0 0.0
2014-Sep-14 01:26N 38°31' W 008°52'4 1.0
2014-Sep-13 21:33N 38°29' W 008°57'9 9.1
2014-Sep-13 20:33N 38°20' W 009°01'1111.2
2014-Sep-13 19:33N 38°09' W 009°03'1110.5
2014-Sep-13 18:33N 37°59' W 009°06'1110.6
2014-Sep-13 17:33N 37°48' W 009°09'1110.9
2014-Sep-13 16:33N 37°37' W 009°10'1110.7
2014-Sep-13 15:33N 37°27' W 009°13'1010.4
2014-Sep-13 14:32N 37°17' W 009°16'1511.0
2014-Sep-13 13:11N 37°03' W 009°20'16 9.6
2014-Sep-13 11:33N 36°48' W 009°13'19 9.5
2014-Sep-13 09:33N 36°42' W 008°51'10 9.5
2014-Sep-13 08:33N 36°42' W 008°39'9 9.3
2014-Sep-13 07:33N 36°43' W 008°27'10 9.7
2014-Sep-13 06:33N 36°43' W 008°15'20 9.8
2014-Sep-13 04:33N 36°44' W 007°51'  

Dump ship's entire track history